sensor_id;sensor_type;location;lat;lon;timestamp;P1;durP1;ratioP1;P2;durP2;ratioP2
26277;SDS011;14000;52.056;8.510;2024-02-26T00:02:23;16.17;;;8.17;;
26277;SDS011;14000;52.056;8.510;2024-02-26T00:04:48;18.57;;;8.80;;
26277;SDS011;14000;52.056;8.510;2024-02-26T00:07:15;19.23;;;9.53;;
26277;SDS011;14000;52.056;8.510;2024-02-26T00:09:40;20.13;;;9.50;;
26277;SDS011;14000;52.056;8.510;2024-02-26T00:12:06;17.83;;;8.63;;
26277;SDS011;14000;52.056;8.510;2024-02-26T00:14:32;14.70;;;7.97;;
26277;SDS011;14000;52.056;8.510;2024-02-26T00:16:57;17.63;;;8.47;;
26277;SDS011;14000;52.056;8.510;2024-02-26T00:19:23;19.93;;;9.67;;
26277;SDS011;14000;52.056;8.510;2024-02-26T00:21:48;17.73;;;8.80;;
26277;SDS011;14000;52.056;8.510;2024-02-26T00:24:14;18.10;;;9.03;;
26277;SDS011;14000;52.056;8.510;2024-02-26T00:26:40;19.13;;;8.73;;
26277;SDS011;14000;52.056;8.510;2024-02-26T00:29:05;19.43;;;10.20;;
26277;SDS011;14000;52.056;8.510;2024-02-26T00:31:31;19.57;;;9.53;;
26277;SDS011;14000;52.056;8.510;2024-02-26T00:33:56;17.60;;;9.23;;
26277;SDS011;14000;52.056;8.510;2024-02-26T00:36:22;17.77;;;9.47;;
26277;SDS011;14000;52.056;8.510;2024-02-26T00:38:48;18.00;;;8.67;;
26277;SDS011;14000;52.056;8.510;2024-02-26T00:41:18;17.77;;;9.10;;
26277;SDS011;14000;52.056;8.510;2024-02-26T00:43:45;16.93;;;9.13;;
26277;SDS011;14000;52.056;8.510;2024-02-26T00:46:11;23.43;;;9.33;;
26277;SDS011;14000;52.056;8.510;2024-02-26T00:48:37;17.90;;;8.77;;
26277;SDS011;14000;52.056;8.510;2024-02-26T00:51:03;18.23;;;8.67;;
26277;SDS011;14000;52.056;8.510;2024-02-26T00:53:32;16.27;;;8.17;;
26277;SDS011;14000;52.056;8.510;2024-02-26T00:55:58;17.37;;;8.80;;
26277;SDS011;14000;52.056;8.510;2024-02-26T00:58:24;18.93;;;9.13;;
26277;SDS011;14000;52.056;8.510;2024-02-26T01:00:50;17.73;;;8.33;;
26277;SDS011;14000;52.056;8.510;2024-02-26T01:03:17;17.43;;;8.40;;
26277;SDS011;14000;52.056;8.510;2024-02-26T01:05:42;17.10;;;8.50;;
26277;SDS011;14000;52.056;8.510;2024-02-26T01:08:08;16.83;;;8.07;;
26277;SDS011;14000;52.056;8.510;2024-02-26T01:10:33;16.53;;;8.07;;
26277;SDS011;14000;52.056;8.510;2024-02-26T01:12:59;16.00;;;8.53;;
26277;SDS011;14000;52.056;8.510;2024-02-26T01:15:25;16.43;;;8.90;;
26277;SDS011;14000;52.056;8.510;2024-02-26T01:17:50;19.50;;;10.03;;
26277;SDS011;14000;52.056;8.510;2024-02-26T01:20:16;16.70;;;8.67;;
26277;SDS011;14000;52.056;8.510;2024-02-26T01:22:42;17.97;;;8.37;;
26277;SDS011;14000;52.056;8.510;2024-02-26T01:25:09;16.53;;;8.80;;
26277;SDS011;14000;52.056;8.510;2024-02-26T01:27:35;14.67;;;7.47;;
26277;SDS011;14000;52.056;8.510;2024-02-26T01:30:03;16.90;;;9.43;;
26277;SDS011;14000;52.056;8.510;2024-02-26T01:32:30;16.93;;;8.13;;
26277;SDS011;14000;52.056;8.510;2024-02-26T01:34:55;20.27;;;10.70;;
26277;SDS011;14000;52.056;8.510;2024-02-26T01:37:21;21.20;;;10.63;;
26277;SDS011;14000;52.056;8.510;2024-02-26T01:39:47;21.30;;;9.70;;
26277;SDS011;14000;52.056;8.510;2024-02-26T01:42:12;20.47;;;10.80;;
26277;SDS011;14000;52.056;8.510;2024-02-26T01:44:38;20.20;;;10.37;;
26277;SDS011;14000;52.056;8.510;2024-02-26T01:47:04;24.30;;;11.07;;
26277;SDS011;14000;52.056;8.510;2024-02-26T01:49:33;21.13;;;11.30;;
26277;SDS011;14000;52.056;8.510;2024-02-26T01:52:00;19.23;;;9.77;;
26277;SDS011;14000;52.056;8.510;2024-02-26T01:54:27;20.97;;;9.67;;
26277;SDS011;14000;52.056;8.510;2024-02-26T01:56:52;19.13;;;10.03;;
26277;SDS011;14000;52.056;8.510;2024-02-26T01:59:19;20.03;;;9.90;;
26277;SDS011;14000;52.056;8.510;2024-02-26T02:01:45;19.60;;;10.70;;
26277;SDS011;14000;52.056;8.510;2024-02-26T02:04:15;19.10;;;9.83;;
26277;SDS011;14000;52.056;8.510;2024-02-26T02:06:41;20.53;;;11.00;;
26277;SDS011;14000;52.056;8.510;2024-02-26T02:09:08;26.67;;;11.80;;
26277;SDS011;14000;52.056;8.510;2024-02-26T02:11:33;20.57;;;10.03;;
26277;SDS011;14000;52.056;8.510;2024-02-26T02:13:59;18.17;;;9.03;;
26277;SDS011;14000;52.056;8.510;2024-02-26T02:16:25;18.23;;;9.07;;
26277;SDS011;14000;52.056;8.510;2024-02-26T02:18:50;19.63;;;9.50;;
26277;SDS011;14000;52.056;8.510;2024-02-26T02:21:16;18.47;;;8.70;;
26277;SDS011;14000;52.056;8.510;2024-02-26T02:23:41;16.80;;;8.60;;
26277;SDS011;14000;52.056;8.510;2024-02-26T02:26:11;17.13;;;9.07;;
26277;SDS011;14000;52.056;8.510;2024-02-26T02:28:38;20.57;;;11.70;;
26277;SDS011;14000;52.056;8.510;2024-02-26T02:31:05;20.20;;;10.70;;
26277;SDS011;14000;52.056;8.510;2024-02-26T02:33:30;23.50;;;11.50;;
26277;SDS011;14000;52.056;8.510;2024-02-26T02:35:56;19.63;;;9.90;;
26277;SDS011;14000;52.056;8.510;2024-02-26T02:38:23;21.10;;;11.03;;
26277;SDS011;14000;52.056;8.510;2024-02-26T02:40:49;19.00;;;10.60;;
26277;SDS011;14000;52.056;8.510;2024-02-26T02:43:14;20.87;;;9.93;;
26277;SDS011;14000;52.056;8.510;2024-02-26T02:45:40;19.60;;;9.70;;
26277;SDS011;14000;52.056;8.510;2024-02-26T02:48:05;19.43;;;10.13;;
26277;SDS011;14000;52.056;8.510;2024-02-26T02:50:31;18.83;;;10.83;;
26277;SDS011;14000;52.056;8.510;2024-02-26T02:52:56;18.17;;;9.70;;
26277;SDS011;14000;52.056;8.510;2024-02-26T02:55:22;20.47;;;9.77;;
26277;SDS011;14000;52.056;8.510;2024-02-26T02:57:47;18.63;;;10.00;;
26277;SDS011;14000;52.056;8.510;2024-02-26T03:00:13;18.77;;;9.80;;
26277;SDS011;14000;52.056;8.510;2024-02-26T03:02:39;18.53;;;10.00;;
26277;SDS011;14000;52.056;8.510;2024-02-26T03:05:04;16.87;;;8.93;;
26277;SDS011;14000;52.056;8.510;2024-02-26T03:07:30;18.10;;;9.77;;
26277;SDS011;14000;52.056;8.510;2024-02-26T03:09:56;17.97;;;9.70;;
26277;SDS011;14000;52.056;8.510;2024-02-26T03:12:22;18.97;;;9.97;;
26277;SDS011;14000;52.056;8.510;2024-02-26T03:14:47;20.83;;;11.20;;
26277;SDS011;14000;52.056;8.510;2024-02-26T03:17:13;18.63;;;10.57;;
26277;SDS011;14000;52.056;8.510;2024-02-26T03:19:39;20.70;;;11.43;;
26277;SDS011;14000;52.056;8.510;2024-02-26T03:22:04;21.57;;;11.93;;
26277;SDS011;14000;52.056;8.510;2024-02-26T03:24:30;22.80;;;12.17;;
26277;SDS011;14000;52.056;8.510;2024-02-26T03:26:55;23.80;;;13.20;;
26277;SDS011;14000;52.056;8.510;2024-02-26T03:29:21;23.70;;;13.33;;
26277;SDS011;14000;52.056;8.510;2024-02-26T03:31:46;22.10;;;11.90;;
26277;SDS011;14000;52.056;8.510;2024-02-26T03:34:12;22.60;;;12.93;;
26277;SDS011;14000;52.056;8.510;2024-02-26T03:36:39;26.40;;;14.43;;
26277;SDS011;14000;52.056;8.510;2024-02-26T03:39:05;24.73;;;14.40;;
26277;SDS011;14000;52.056;8.510;2024-02-26T03:41:32;28.07;;;15.03;;
26277;SDS011;14000;52.056;8.510;2024-02-26T03:43:58;27.00;;;15.30;;
26277;SDS011;14000;52.056;8.510;2024-02-26T03:46:24;27.20;;;14.47;;
26277;SDS011;14000;52.056;8.510;2024-02-26T03:48:50;20.03;;;11.33;;
26277;SDS011;14000;52.056;8.510;2024-02-26T03:51:15;25.50;;;14.13;;
26277;SDS011;14000;52.056;8.510;2024-02-26T03:53:41;18.20;;;9.67;;
26277;SDS011;14000;52.056;8.510;2024-02-26T03:56:06;18.70;;;9.47;;
26277;SDS011;14000;52.056;8.510;2024-02-26T03:58:32;18.73;;;9.97;;
26277;SDS011;14000;52.056;8.510;2024-02-26T04:00:58;19.60;;;10.17;;
26277;SDS011;14000;52.056;8.510;2024-02-26T04:03:25;22.97;;;10.57;;
26277;SDS011;14000;52.056;8.510;2024-02-26T04:05:50;21.30;;;12.20;;
26277;SDS011;14000;52.056;8.510;2024-02-26T04:08:16;20.87;;;11.77;;
26277;SDS011;14000;52.056;8.510;2024-02-26T04:10:41;20.70;;;11.53;;
26277;SDS011;14000;52.056;8.510;2024-02-26T04:13:07;21.60;;;12.83;;
26277;SDS011;14000;52.056;8.510;2024-02-26T04:15:33;23.30;;;13.63;;
26277;SDS011;14000;52.056;8.510;2024-02-26T04:17:59;23.53;;;12.97;;
26277;SDS011;14000;52.056;8.510;2024-02-26T04:20:24;27.33;;;13.87;;
26277;SDS011;14000;52.056;8.510;2024-02-26T04:22:50;23.93;;;14.27;;
26277;SDS011;14000;52.056;8.510;2024-02-26T04:25:16;21.93;;;13.67;;
26277;SDS011;14000;52.056;8.510;2024-02-26T04:27:42;24.50;;;13.73;;
26277;SDS011;14000;52.056;8.510;2024-02-26T04:30:07;23.83;;;14.03;;
26277;SDS011;14000;52.056;8.510;2024-02-26T04:32:33;23.47;;;13.87;;
26277;SDS011;14000;52.056;8.510;2024-02-26T04:35:00;26.37;;;14.00;;
26277;SDS011;14000;52.056;8.510;2024-02-26T04:37:26;21.80;;;13.20;;
26277;SDS011;14000;52.056;8.510;2024-02-26T04:39:57;30.00;;;16.50;;
26277;SDS011;14000;52.056;8.510;2024-02-26T04:42:23;25.83;;;15.10;;
26277;SDS011;14000;52.056;8.510;2024-02-26T04:44:48;25.63;;;14.23;;
26277;SDS011;14000;52.056;8.510;2024-02-26T04:47:14;24.00;;;14.13;;
26277;SDS011;14000;52.056;8.510;2024-02-26T04:49:40;24.33;;;14.20;;
26277;SDS011;14000;52.056;8.510;2024-02-26T04:52:06;26.03;;;13.80;;
26277;SDS011;14000;52.056;8.510;2024-02-26T04:54:31;22.50;;;13.23;;
26277;SDS011;14000;52.056;8.510;2024-02-26T04:56:57;23.43;;;13.57;;
26277;SDS011;14000;52.056;8.510;2024-02-26T04:59:22;26.17;;;14.20;;
26277;SDS011;14000;52.056;8.510;2024-02-26T05:01:48;25.50;;;14.17;;
26277;SDS011;14000;52.056;8.510;2024-02-26T05:04:13;29.80;;;16.57;;
26277;SDS011;14000;52.056;8.510;2024-02-26T05:06:39;21.23;;;12.70;;
26277;SDS011;14000;52.056;8.510;2024-02-26T05:09:05;23.47;;;13.50;;
26277;SDS011;14000;52.056;8.510;2024-02-26T05:11:30;27.37;;;15.27;;
26277;SDS011;14000;52.056;8.510;2024-02-26T05:13:56;23.70;;;14.07;;
26277;SDS011;14000;52.056;8.510;2024-02-26T05:16:22;24.07;;;13.87;;
26277;SDS011;14000;52.056;8.510;2024-02-26T05:18:49;24.97;;;14.50;;
26277;SDS011;14000;52.056;8.510;2024-02-26T05:21:15;22.40;;;13.03;;
26277;SDS011;14000;52.056;8.510;2024-02-26T05:23:40;23.43;;;13.47;;
26277;SDS011;14000;52.056;8.510;2024-02-26T05:26:08;21.60;;;13.33;;
26277;SDS011;14000;52.056;8.510;2024-02-26T05:28:34;22.83;;;13.73;;
26277;SDS011;14000;52.056;8.510;2024-02-26T05:31:01;21.70;;;13.10;;
26277;SDS011;14000;52.056;8.510;2024-02-26T05:33:26;22.57;;;12.57;;
26277;SDS011;14000;52.056;8.510;2024-02-26T05:35:52;28.37;;;15.80;;
26277;SDS011;14000;52.056;8.510;2024-02-26T05:38:17;27.87;;;14.67;;
26277;SDS011;14000;52.056;8.510;2024-02-26T05:40:43;21.83;;;13.53;;
26277;SDS011;14000;52.056;8.510;2024-02-26T05:43:09;20.63;;;13.03;;
26277;SDS011;14000;52.056;8.510;2024-02-26T05:45:35;24.30;;;14.53;;
26277;SDS011;14000;52.056;8.510;2024-02-26T05:48:00;21.40;;;12.67;;
26277;SDS011;14000;52.056;8.510;2024-02-26T05:50:26;21.20;;;12.47;;
26277;SDS011;14000;52.056;8.510;2024-02-26T05:52:51;21.33;;;13.23;;
26277;SDS011;14000;52.056;8.510;2024-02-26T05:55:17;20.00;;;11.87;;
26277;SDS011;14000;52.056;8.510;2024-02-26T05:57:43;27.93;;;15.80;;
26277;SDS011;14000;52.056;8.510;2024-02-26T06:00:08;20.17;;;11.73;;
26277;SDS011;14000;52.056;8.510;2024-02-26T06:02:34;19.70;;;11.93;;
26277;SDS011;14000;52.056;8.510;2024-02-26T06:05:00;21.17;;;11.50;;
26277;SDS011;14000;52.056;8.510;2024-02-26T06:07:25;20.03;;;12.23;;
26277;SDS011;14000;52.056;8.510;2024-02-26T06:09:51;19.97;;;11.30;;
26277;SDS011;14000;52.056;8.510;2024-02-26T06:12:16;16.80;;;10.27;;
26277;SDS011;14000;52.056;8.510;2024-02-26T06:14:42;17.03;;;9.87;;
26277;SDS011;14000;52.056;8.510;2024-02-26T06:17:08;19.13;;;10.70;;
26277;SDS011;14000;52.056;8.510;2024-02-26T06:19:34;18.60;;;9.30;;
26277;SDS011;14000;52.056;8.510;2024-02-26T06:21:59;16.57;;;9.60;;
26277;SDS011;14000;52.056;8.510;2024-02-26T06:24:25;17.87;;;9.67;;
26277;SDS011;14000;52.056;8.510;2024-02-26T06:26:50;18.00;;;10.17;;
26277;SDS011;14000;52.056;8.510;2024-02-26T06:29:16;20.90;;;11.20;;
26277;SDS011;14000;52.056;8.510;2024-02-26T06:31:41;15.70;;;8.50;;
26277;SDS011;14000;52.056;8.510;2024-02-26T06:34:08;13.83;;;7.67;;
26277;SDS011;14000;52.056;8.510;2024-02-26T06:36:33;15.33;;;7.83;;
26277;SDS011;14000;52.056;8.510;2024-02-26T06:38:59;14.50;;;7.47;;
26277;SDS011;14000;52.056;8.510;2024-02-26T06:41:25;16.97;;;8.40;;
26277;SDS011;14000;52.056;8.510;2024-02-26T06:43:53;17.50;;;9.40;;
26277;SDS011;14000;52.056;8.510;2024-02-26T06:46:19;15.20;;;6.80;;
26277;SDS011;14000;52.056;8.510;2024-02-26T06:48:45;14.47;;;6.20;;
26277;SDS011;14000;52.056;8.510;2024-02-26T06:51:13;11.80;;;5.63;;
26277;SDS011;14000;52.056;8.510;2024-02-26T06:53:38;11.43;;;5.00;;
26277;SDS011;14000;52.056;8.510;2024-02-26T06:56:04;11.20;;;5.20;;
26277;SDS011;14000;52.056;8.510;2024-02-26T06:58:30;11.20;;;5.13;;
26277;SDS011;14000;52.056;8.510;2024-02-26T07:00:55;10.03;;;4.47;;
26277;SDS011;14000;52.056;8.510;2024-02-26T07:03:21;10.30;;;4.63;;
26277;SDS011;14000;52.056;8.510;2024-02-26T07:05:47;12.60;;;5.23;;
26277;SDS011;14000;52.056;8.510;2024-02-26T07:08:13;11.30;;;5.10;;
26277;SDS011;14000;52.056;8.510;2024-02-26T07:10:39;12.13;;;4.90;;
26277;SDS011;14000;52.056;8.510;2024-02-26T07:13:04;13.00;;;5.57;;
26277;SDS011;14000;52.056;8.510;2024-02-26T07:15:30;12.50;;;5.40;;
26277;SDS011;14000;52.056;8.510;2024-02-26T07:17:55;12.00;;;4.90;;
26277;SDS011;14000;52.056;8.510;2024-02-26T07:20:21;12.13;;;5.07;;
26277;SDS011;14000;52.056;8.510;2024-02-26T07:22:46;13.53;;;5.50;;
26277;SDS011;14000;52.056;8.510;2024-02-26T07:25:12;13.83;;;5.43;;
26277;SDS011;14000;52.056;8.510;2024-02-26T07:27:39;14.40;;;5.70;;
26277;SDS011;14000;52.056;8.510;2024-02-26T07:30:05;14.47;;;5.93;;
26277;SDS011;14000;52.056;8.510;2024-02-26T07:32:33;15.33;;;6.43;;
26277;SDS011;14000;52.056;8.510;2024-02-26T07:34:58;17.20;;;5.97;;
26277;SDS011;14000;52.056;8.510;2024-02-26T07:37:24;16.37;;;5.73;;
26277;SDS011;14000;52.056;8.510;2024-02-26T07:39:49;13.67;;;5.63;;
26277;SDS011;14000;52.056;8.510;2024-02-26T07:42:15;11.87;;;5.30;;
26277;SDS011;14000;52.056;8.510;2024-02-26T07:44:40;15.07;;;6.37;;
26277;SDS011;14000;52.056;8.510;2024-02-26T07:47:08;16.60;;;6.80;;
26277;SDS011;14000;52.056;8.510;2024-02-26T07:49:34;12.83;;;6.20;;
26277;SDS011;14000;52.056;8.510;2024-02-26T07:52:00;14.27;;;6.67;;
26277;SDS011;14000;52.056;8.510;2024-02-26T07:54:25;16.23;;;7.17;;
26277;SDS011;14000;52.056;8.510;2024-02-26T07:56:51;14.23;;;7.03;;
26277;SDS011;14000;52.056;8.510;2024-02-26T07:59:16;14.63;;;6.63;;
26277;SDS011;14000;52.056;8.510;2024-02-26T08:01:42;15.30;;;7.60;;
26277;SDS011;14000;52.056;8.510;2024-02-26T08:04:08;14.47;;;7.23;;
26277;SDS011;14000;52.056;8.510;2024-02-26T08:06:33;14.70;;;6.83;;
26277;SDS011;14000;52.056;8.510;2024-02-26T08:08:59;14.73;;;6.60;;
26277;SDS011;14000;52.056;8.510;2024-02-26T08:11:25;13.50;;;6.60;;
26277;SDS011;14000;52.056;8.510;2024-02-26T08:13:50;17.70;;;8.20;;
26277;SDS011;14000;52.056;8.510;2024-02-26T08:16:16;16.50;;;8.20;;
26277;SDS011;14000;52.056;8.510;2024-02-26T08:18:42;15.50;;;7.27;;
26277;SDS011;14000;52.056;8.510;2024-02-26T08:21:07;14.70;;;7.10;;
26277;SDS011;14000;52.056;8.510;2024-02-26T08:23:33;15.33;;;6.67;;
26277;SDS011;14000;52.056;8.510;2024-02-26T08:25:59;16.70;;;7.20;;
26277;SDS011;14000;52.056;8.510;2024-02-26T08:28:24;18.17;;;7.40;;
26277;SDS011;14000;52.056;8.510;2024-02-26T08:30:50;14.53;;;7.13;;
26277;SDS011;14000;52.056;8.510;2024-02-26T08:33:15;16.03;;;7.20;;
26277;SDS011;14000;52.056;8.510;2024-02-26T08:35:41;16.30;;;7.27;;
26277;SDS011;14000;52.056;8.510;2024-02-26T08:38:06;16.20;;;7.37;;
26277;SDS011;14000;52.056;8.510;2024-02-26T08:40:32;17.57;;;7.87;;
26277;SDS011;14000;52.056;8.510;2024-02-26T08:42:57;16.30;;;7.40;;
26277;SDS011;14000;52.056;8.510;2024-02-26T08:45:23;17.60;;;7.33;;
26277;SDS011;14000;52.056;8.510;2024-02-26T08:47:49;17.17;;;8.00;;
26277;SDS011;14000;52.056;8.510;2024-02-26T08:50:15;15.97;;;7.60;;
26277;SDS011;14000;52.056;8.510;2024-02-26T08:52:40;16.80;;;7.27;;
26277;SDS011;14000;52.056;8.510;2024-02-26T08:55:06;18.07;;;7.67;;
26277;SDS011;14000;52.056;8.510;2024-02-26T08:57:33;16.40;;;7.77;;
26277;SDS011;14000;52.056;8.510;2024-02-26T08:59:59;15.70;;;7.77;;
26277;SDS011;14000;52.056;8.510;2024-02-26T09:02:26;16.70;;;7.70;;
26277;SDS011;14000;52.056;8.510;2024-02-26T09:04:52;15.20;;;7.77;;
26277;SDS011;14000;52.056;8.510;2024-02-26T09:07:20;16.80;;;7.37;;
26277;SDS011;14000;52.056;8.510;2024-02-26T09:09:45;17.37;;;7.60;;
26277;SDS011;14000;52.056;8.510;2024-02-26T09:12:11;18.90;;;7.57;;
26277;SDS011;14000;52.056;8.510;2024-02-26T09:14:37;18.33;;;8.33;;
26277;SDS011;14000;52.056;8.510;2024-02-26T09:17:02;18.20;;;7.67;;
26277;SDS011;14000;52.056;8.510;2024-02-26T09:19:28;18.20;;;7.10;;
26277;SDS011;14000;52.056;8.510;2024-02-26T09:21:54;15.33;;;7.43;;
26277;SDS011;14000;52.056;8.510;2024-02-26T09:24:23;16.53;;;7.60;;
26277;SDS011;14000;52.056;8.510;2024-02-26T09:26:49;18.40;;;7.63;;
26277;SDS011;14000;52.056;8.510;2024-02-26T09:29:15;16.23;;;7.33;;
26277;SDS011;14000;52.056;8.510;2024-02-26T09:31:41;13.73;;;6.27;;
26277;SDS011;14000;52.056;8.510;2024-02-26T09:34:07;15.40;;;6.13;;
26277;SDS011;14000;52.056;8.510;2024-02-26T09:36:36;14.93;;;6.37;;
26277;SDS011;14000;52.056;8.510;2024-02-26T09:39:01;15.07;;;6.30;;
26277;SDS011;14000;52.056;8.510;2024-02-26T09:41:28;14.97;;;5.77;;
26277;SDS011;14000;52.056;8.510;2024-02-26T09:43:57;13.97;;;6.30;;
26277;SDS011;14000;52.056;8.510;2024-02-26T09:46:25;13.53;;;6.10;;
26277;SDS011;14000;52.056;8.510;2024-02-26T09:48:50;13.40;;;6.30;;
26277;SDS011;14000;52.056;8.510;2024-02-26T09:51:16;14.20;;;6.20;;
26277;SDS011;14000;52.056;8.510;2024-02-26T09:53:43;14.47;;;6.53;;
26277;SDS011;14000;52.056;8.510;2024-02-26T09:56:11;13.30;;;6.13;;
26277;SDS011;14000;52.056;8.510;2024-02-26T09:58:38;13.10;;;5.60;;
26277;SDS011;14000;52.056;8.510;2024-02-26T10:01:04;12.83;;;5.77;;
26277;SDS011;14000;52.056;8.510;2024-02-26T10:03:40;13.60;;;5.90;;
26277;SDS011;14000;52.056;8.510;2024-02-26T10:06:07;16.73;;;5.57;;
26277;SDS011;14000;52.056;8.510;2024-02-26T10:08:33;11.50;;;4.70;;
26277;SDS011;14000;52.056;8.510;2024-02-26T10:11:00;13.13;;;5.47;;
26277;SDS011;14000;52.056;8.510;2024-02-26T10:13:26;11.53;;;5.23;;
26277;SDS011;14000;52.056;8.510;2024-02-26T10:15:52;16.07;;;5.33;;
26277;SDS011;14000;52.056;8.510;2024-02-26T10:18:17;14.43;;;5.17;;
26277;SDS011;14000;52.056;8.510;2024-02-26T10:20:58;12.47;;;5.23;;
26277;SDS011;14000;52.056;8.510;2024-02-26T10:23:25;11.77;;;4.90;;
26277;SDS011;14000;52.056;8.510;2024-02-26T10:25:54;12.77;;;5.00;;
26277;SDS011;14000;52.056;8.510;2024-02-26T10:28:20;12.37;;;5.30;;
26277;SDS011;14000;52.056;8.510;2024-02-26T10:30:47;13.50;;;5.23;;
26277;SDS011;14000;52.056;8.510;2024-02-26T10:33:13;11.27;;;5.27;;
26277;SDS011;14000;52.056;8.510;2024-02-26T10:35:39;13.30;;;5.53;;
26277;SDS011;14000;52.056;8.510;2024-02-26T10:38:09;10.80;;;4.70;;
26277;SDS011;14000;52.056;8.510;2024-02-26T10:40:35;12.23;;;4.93;;
26277;SDS011;14000;52.056;8.510;2024-02-26T10:43:01;12.80;;;5.67;;
26277;SDS011;14000;52.056;8.510;2024-02-26T10:45:27;14.00;;;5.53;;
26277;SDS011;14000;52.056;8.510;2024-02-26T10:47:53;11.37;;;4.80;;
26277;SDS011;14000;52.056;8.510;2024-02-26T10:50:19;14.73;;;5.63;;
26277;SDS011;14000;52.056;8.510;2024-02-26T10:52:45;13.00;;;5.43;;
26277;SDS011;14000;52.056;8.510;2024-02-26T10:55:15;14.50;;;4.53;;
26277;SDS011;14000;52.056;8.510;2024-02-26T10:57:43;11.33;;;4.73;;
26277;SDS011;14000;52.056;8.510;2024-02-26T11:00:10;11.50;;;4.70;;
26277;SDS011;14000;52.056;8.510;2024-02-26T11:02:39;11.43;;;4.60;;
26277;SDS011;14000;52.056;8.510;2024-02-26T11:05:06;14.83;;;5.17;;
26277;SDS011;14000;52.056;8.510;2024-02-26T11:07:35;9.93;;;4.27;;
26277;SDS011;14000;52.056;8.510;2024-02-26T11:10:02;11.93;;;4.23;;
26277;SDS011;14000;52.056;8.510;2024-02-26T11:12:29;12.43;;;4.57;;
26277;SDS011;14000;52.056;8.510;2024-02-26T11:14:56;13.70;;;5.20;;
26277;SDS011;14000;52.056;8.510;2024-02-26T11:17:25;13.17;;;4.80;;
26277;SDS011;14000;52.056;8.510;2024-02-26T11:19:55;11.93;;;4.90;;
26277;SDS011;14000;52.056;8.510;2024-02-26T11:22:21;17.00;;;5.13;;
26277;SDS011;14000;52.056;8.510;2024-02-26T11:24:47;11.30;;;5.00;;
26277;SDS011;14000;52.056;8.510;2024-02-26T11:27:13;12.97;;;5.00;;
26277;SDS011;14000;52.056;8.510;2024-02-26T11:29:43;12.50;;;4.70;;
26277;SDS011;14000;52.056;8.510;2024-02-26T11:32:12;12.40;;;5.00;;
26277;SDS011;14000;52.056;8.510;2024-02-26T11:34:39;14.57;;;5.07;;
26277;SDS011;14000;52.056;8.510;2024-02-26T11:37:12;12.00;;;4.63;;
26277;SDS011;14000;52.056;8.510;2024-02-26T11:39:41;11.83;;;4.90;;
26277;SDS011;14000;52.056;8.510;2024-02-26T11:42:09;14.20;;;5.20;;
26277;SDS011;14000;52.056;8.510;2024-02-26T11:44:38;11.10;;;5.10;;
26277;SDS011;14000;52.056;8.510;2024-02-26T11:49:37;18.13;;;9.77;;
26277;SDS011;14000;52.056;8.510;2024-02-26T11:52:04;14.20;;;6.40;;
26277;SDS011;14000;52.056;8.510;2024-02-26T11:54:39;17.40;;;7.70;;
26277;SDS011;14000;52.056;8.510;2024-02-26T11:59:45;14.83;;;6.60;;
26277;SDS011;14000;52.056;8.510;2024-02-26T12:02:11;14.03;;;6.57;;
26277;SDS011;14000;52.056;8.510;2024-02-26T12:04:37;15.40;;;6.40;;
26277;SDS011;14000;52.056;8.510;2024-02-26T12:07:03;12.90;;;5.60;;
26277;SDS011;14000;52.056;8.510;2024-02-26T12:09:48;13.20;;;5.80;;
26277;SDS011;14000;52.056;8.510;2024-02-26T12:12:17;13.63;;;6.20;;
26277;SDS011;14000;52.056;8.510;2024-02-26T12:14:51;11.87;;;5.70;;
26277;SDS011;14000;52.056;8.510;2024-02-26T12:17:21;14.27;;;6.00;;
26277;SDS011;14000;52.056;8.510;2024-02-26T12:19:48;12.20;;;5.70;;
26277;SDS011;14000;52.056;8.510;2024-02-26T12:22:14;13.20;;;5.77;;
26277;SDS011;14000;52.056;8.510;2024-02-26T12:24:40;14.30;;;5.40;;
26277;SDS011;14000;52.056;8.510;2024-02-26T12:27:06;13.47;;;5.47;;
26277;SDS011;14000;52.056;8.510;2024-02-26T12:29:31;11.00;;;4.50;;
26277;SDS011;14000;52.056;8.510;2024-02-26T12:31:57;11.13;;;4.90;;
26277;SDS011;14000;52.056;8.510;2024-02-26T12:34:23;12.10;;;4.43;;
26277;SDS011;14000;52.056;8.510;2024-02-26T12:36:49;11.90;;;4.97;;
26277;SDS011;14000;52.056;8.510;2024-02-26T12:39:14;12.73;;;5.23;;
26277;SDS011;14000;52.056;8.510;2024-02-26T12:41:40;12.03;;;3.97;;
26277;SDS011;14000;52.056;8.510;2024-02-26T12:44:07;11.17;;;4.73;;
26277;SDS011;14000;52.056;8.510;2024-02-26T12:46:33;10.67;;;4.00;;
26277;SDS011;14000;52.056;8.510;2024-02-26T12:48:58;9.77;;;3.80;;
26277;SDS011;14000;52.056;8.510;2024-02-26T12:51:25;14.23;;;4.30;;
26277;SDS011;14000;52.056;8.510;2024-02-26T12:53:51;10.53;;;3.90;;
26277;SDS011;14000;52.056;8.510;2024-02-26T12:56:18;9.93;;;3.93;;
26277;SDS011;14000;52.056;8.510;2024-02-26T12:58:44;10.77;;;4.63;;
26277;SDS011;14000;52.056;8.510;2024-02-26T13:01:13;11.03;;;3.27;;
26277;SDS011;14000;52.056;8.510;2024-02-26T13:03:40;12.37;;;3.30;;
26277;SDS011;14000;52.056;8.510;2024-02-26T13:06:07;8.47;;;3.83;;
26277;SDS011;14000;52.056;8.510;2024-02-26T13:08:33;8.93;;;3.60;;
26277;SDS011;14000;52.056;8.510;2024-02-26T13:10:59;9.97;;;3.67;;
26277;SDS011;14000;52.056;8.510;2024-02-26T13:13:25;9.43;;;3.17;;
26277;SDS011;14000;52.056;8.510;2024-02-26T13:16:00;9.53;;;3.40;;
26277;SDS011;14000;52.056;8.510;2024-02-26T13:18:28;8.10;;;3.10;;
26277;SDS011;14000;52.056;8.510;2024-02-26T13:21:05;8.33;;;3.20;;
26277;SDS011;14000;52.056;8.510;2024-02-26T13:23:34;9.00;;;3.30;;
26277;SDS011;14000;52.056;8.510;2024-02-26T13:26:00;9.30;;;3.40;;
26277;SDS011;14000;52.056;8.510;2024-02-26T13:28:25;8.53;;;3.27;;
26277;SDS011;14000;52.056;8.510;2024-02-26T13:30:56;8.60;;;3.20;;
26277;SDS011;14000;52.056;8.510;2024-02-26T13:33:23;10.70;;;3.63;;
26277;SDS011;14000;52.056;8.510;2024-02-26T13:35:49;9.60;;;3.53;;
26277;SDS011;14000;52.056;8.510;2024-02-26T13:38:15;9.53;;;2.83;;
26277;SDS011;14000;52.056;8.510;2024-02-26T13:40:40;8.17;;;3.13;;
26277;SDS011;14000;52.056;8.510;2024-02-26T13:43:06;7.97;;;3.07;;
26277;SDS011;14000;52.056;8.510;2024-02-26T13:45:36;8.30;;;3.00;;
26277;SDS011;14000;52.056;8.510;2024-02-26T13:48:03;9.97;;;3.40;;
26277;SDS011;14000;52.056;8.510;2024-02-26T13:50:31;7.57;;;2.97;;
26277;SDS011;14000;52.056;8.510;2024-02-26T13:52:56;7.87;;;3.20;;
26277;SDS011;14000;52.056;8.510;2024-02-26T13:55:23;8.47;;;2.90;;
26277;SDS011;14000;52.056;8.510;2024-02-26T13:57:51;7.87;;;3.27;;
26277;SDS011;14000;52.056;8.510;2024-02-26T14:00:18;10.30;;;3.40;;
26277;SDS011;14000;52.056;8.510;2024-02-26T14:02:44;7.53;;;2.97;;
26277;SDS011;14000;52.056;8.510;2024-02-26T14:05:10;8.73;;;3.33;;
26277;SDS011;14000;52.056;8.510;2024-02-26T14:07:36;8.50;;;3.00;;
26277;SDS011;14000;52.056;8.510;2024-02-26T14:10:02;8.17;;;2.90;;
26277;SDS011;14000;52.056;8.510;2024-02-26T14:12:28;9.63;;;3.00;;
26277;SDS011;14000;52.056;8.510;2024-02-26T14:14:53;8.70;;;3.10;;
26277;SDS011;14000;52.056;8.510;2024-02-26T14:17:20;7.40;;;2.90;;
26277;SDS011;14000;52.056;8.510;2024-02-26T14:19:46;9.13;;;3.50;;
26277;SDS011;14000;52.056;8.510;2024-02-26T14:22:13;9.23;;;3.30;;
26277;SDS011;14000;52.056;8.510;2024-02-26T14:24:41;8.47;;;3.43;;
26277;SDS011;14000;52.056;8.510;2024-02-26T14:27:10;8.37;;;3.20;;
26277;SDS011;14000;52.056;8.510;2024-02-26T14:29:41;9.17;;;3.30;;
26277;SDS011;14000;52.056;8.510;2024-02-26T14:32:08;10.73;;;3.33;;
26277;SDS011;14000;52.056;8.510;2024-02-26T14:34:34;9.60;;;3.60;;